createdAt,value
2023-05-02T00:00:39.892Z,100848.56
2023-05-02T00:03:06.386Z,100849.97
2023-05-02T00:05:33.272Z,100845.63
2023-05-02T00:07:59.697Z,100843.47
2023-05-02T00:10:26.062Z,100847.00
2023-05-02T00:12:52.415Z,100841.25
2023-05-02T00:15:18.767Z,100850.59
2023-05-02T00:17:45.600Z,100841.25
2023-05-02T00:20:11.973Z,100841.25
2023-05-02T00:22:38.373Z,100835.50
2023-05-02T00:25:05.068Z,100845.53
2023-05-02T00:27:34.221Z,100841.25
2023-05-02T00:30:01.223Z,100836.91
2023-05-02T00:32:28.150Z,100839.00
2023-05-02T00:34:54.696Z,100840.50
2023-05-02T00:37:21.206Z,100838.28
2023-05-02T00:39:47.786Z,100839.69
2023-05-02T00:42:14.201Z,100835.31
2023-05-02T00:44:40.672Z,100838.28
2023-05-02T00:47:07.015Z,100838.94
2023-05-02T00:49:33.699Z,100831.03
2023-05-02T00:52:00.207Z,100836.06
2023-05-02T00:54:26.555Z,100841.06
2023-05-02T00:56:52.925Z,100839.59
2023-05-02T00:59:19.894Z,100840.31
2023-05-02T01:01:53.917Z,100843.84
2023-05-02T01:04:32.217Z,100840.97
2023-05-02T01:07:01.536Z,100837.34
2023-05-02T01:09:42.262Z,100842.38
2023-05-02T01:12:23.856Z,100843.84
2023-05-02T01:14:54.909Z,100843.09
2023-05-02T01:17:21.883Z,100842.38
2023-05-02T01:19:51.014Z,100845.88
2023-05-02T01:22:17.557Z,100849.53
2023-05-02T01:24:50.147Z,100846.66
2023-05-02T01:27:37.075Z,100853.13
2023-05-02T01:30:03.882Z,100852.41
2023-05-02T01:32:31.067Z,100839.41
2023-05-02T01:34:57.518Z,100862.41
2023-05-02T01:37:24.286Z,100856.66
2023-05-02T01:39:50.663Z,100862.41
2023-05-02T01:42:17.001Z,100865.19
2023-05-02T01:44:44.598Z,100859.44
2023-05-02T01:47:11.129Z,100867.44
2023-05-02T01:49:37.637Z,100869.56
2023-05-02T01:52:05.148Z,100876.69
2023-05-02T01:54:31.480Z,100877.44
2023-05-02T01:56:57.834Z,100879.59
2023-05-02T01:59:24.190Z,100882.47
2023-05-02T02:01:51.499Z,100898.25
2023-05-02T02:04:17.909Z,100898.25
2023-05-02T02:06:45.737Z,100892.50
2023-05-02T02:09:12.135Z,100900.38
2023-05-02T02:11:44.018Z,100905.38
2023-05-02T02:14:23.867Z,100901.75
2023-05-02T02:16:50.786Z,100896.00
2023-05-02T02:19:17.196Z,100907.53
2023-05-02T02:21:43.614Z,100913.28
2023-05-02T02:24:09.976Z,100913.28
2023-05-02T02:26:36.453Z,100906.78
2023-05-02T02:29:03.345Z,100912.53
2023-05-02T02:31:32.965Z,100912.53
2023-05-02T02:33:59.500Z,100908.16
2023-05-02T02:36:31.608Z,100918.28
2023-05-02T02:39:02.850Z,100922.53
2023-05-02T02:41:32.964Z,100928.28
2023-05-02T02:44:04.958Z,100932.56
2023-05-02T02:46:34.859Z,100942.69
2023-05-02T02:49:15.136Z,100947.06
2023-05-02T02:51:45.911Z,100950.03
2023-05-02T02:54:27.178Z,100956.53
2023-05-02T02:56:59.144Z,100971.00
2023-05-02T02:59:35.379Z,100979.00
2023-05-02T03:02:08.536Z,100986.22
2023-05-02T03:04:35.442Z,100986.22
2023-05-02T03:07:03.065Z,100980.47
2023-05-02T03:09:40.204Z,101002.09
2023-05-02T03:12:07.568Z,101002.09
2023-05-02T03:14:36.127Z,101009.25
2023-05-02T03:17:02.546Z,100999.88
2023-05-02T03:19:29.438Z,101005.63
2023-05-02T03:21:56.526Z,101003.50
2023-05-02T03:24:22.939Z,100995.50
2023-05-02T03:26:49.310Z,101000.53
2023-05-02T03:29:21.309Z,101000.53
2023-05-02T03:31:47.767Z,101001.25
2023-05-02T03:34:14.161Z,101000.53
2023-05-02T03:36:41.716Z,101008.50
2023-05-02T03:39:08.060Z,101014.25
2023-05-02T03:41:34.760Z,101017.16
2023-05-02T03:44:06.633Z,101018.53
2023-05-02T03:46:33.244Z,101022.06
2023-05-02T03:49:00.825Z,101026.31
2023-05-02T03:51:27.219Z,101042.09
2023-05-02T03:53:56.656Z,101029.09
2023-05-02T03:56:23.131Z,101039.22
2023-05-02T03:58:59.729Z,101046.34
2023-05-02T04:01:27.105Z,101043.38
2023-05-02T04:03:54.828Z,101056.38
2023-05-02T04:06:23.599Z,101047.75
2023-05-02T04:08:59.459Z,101054.88
2023-05-02T04:11:30.775Z,101054.88
2023-05-02T04:13:57.131Z,101065.66
2023-05-02T04:16:23.712Z,101060.63
2023-05-02T04:18:50.173Z,101067.75
2023-05-02T04:21:17.518Z,101069.91
2023-05-02T04:23:45.039Z,101078.53
2023-05-02T04:26:11.477Z,101069.13
2023-05-02T04:28:44.822Z,101070.53
2023-05-02T04:31:14.268Z,101074.88
2023-05-02T04:33:41.164Z,101079.91
2023-05-02T04:36:07.852Z,101076.28
2023-05-02T04:38:34.568Z,101083.44
2023-05-02T04:41:09.180Z,101084.91
2023-05-02T04:43:41.447Z,101092.06
2023-05-02T04:46:08.445Z,101094.19
2023-05-02T04:48:41.920Z,101110.72
2023-05-02T04:51:11.336Z,101109.97
2023-05-02T04:53:37.725Z,101112.84
2023-05-02T04:56:04.128Z,101107.72
2023-05-02T04:58:35.131Z,101112.09
2023-05-02T05:01:04.365Z,101114.22
2023-05-02T05:03:31.270Z,101119.97
2023-05-02T05:05:57.981Z,101125.00
2023-05-02T05:08:25.215Z,101130.75
2023-05-02T05:10:51.833Z,101135.75
2023-05-02T05:13:19.481Z,101145.13
2023-05-02T05:15:48.176Z,101152.31
2023-05-02T05:18:16.515Z,101151.25
2023-05-02T05:20:42.936Z,101156.94
2023-05-02T05:23:10.182Z,101154.06
2023-05-02T05:25:36.607Z,101157.34
2023-05-02T05:28:02.998Z,101147.25
2023-05-02T05:30:31.466Z,101158.66
2023-05-02T05:32:59.478Z,101156.75
2023-05-02T05:35:25.875Z,101168.25
2023-05-02T05:37:53.303Z,101162.50
2023-05-02T05:40:21.308Z,101166.88
2023-05-02T05:42:52.556Z,101178.47
2023-05-02T05:45:24.827Z,101184.34
2023-05-02T05:47:51.629Z,101187.44
2023-05-02T05:50:18.317Z,101191.94
2023-05-02T05:52:45.924Z,101190.63
2023-05-02T05:55:12.805Z,101194.25
2023-05-02T05:57:39.464Z,101209.59
2023-05-02T06:00:07.394Z,101206.59
2023-05-02T06:02:42.299Z,101220.25
2023-05-02T06:05:14.878Z,101214.16
2023-05-02T06:07:42.632Z,101227.50
2023-05-02T06:10:10.353Z,101223.22
2023-05-02T06:12:37.947Z,101229.94
2023-05-02T06:15:05.478Z,101225.66
2023-05-02T06:17:32.248Z,101243.88
2023-05-02T06:19:58.817Z,101246.75
2023-05-02T06:22:25.448Z,101244.72
2023-05-02T06:24:52.254Z,101254.22
2023-05-02T06:27:18.618Z,101255.69
2023-05-02T06:29:44.976Z,101254.28
2023-05-02T06:32:11.302Z,101256.16
2023-05-02T06:34:37.658Z,101270.56
2023-05-02T06:37:04.002Z,101283.34
2023-05-02T06:39:30.664Z,101290.72
2023-05-02T06:41:57.863Z,101303.41
2023-05-02T06:44:24.224Z,101314.00
2023-05-02T06:46:50.766Z,101306.72
2023-05-02T06:49:17.124Z,101318.91
2023-05-02T06:51:43.502Z,101316.13
2023-05-02T06:54:09.883Z,101322.91
2023-05-02T06:56:36.267Z,101320.69
2023-05-02T06:59:02.653Z,101330.69
2023-05-02T07:01:29.067Z,101332.50
2023-05-02T07:03:55.482Z,101334.56
2023-05-02T07:06:21.970Z,101336.63
2023-05-02T07:08:48.484Z,101334.91
2023-05-02T07:11:14.882Z,101338.53
2023-05-02T07:13:41.245Z,101351.41
2023-05-02T07:16:07.689Z,101351.94
2023-05-02T07:18:34.062Z,101359.28
2023-05-02T07:21:01.395Z,101357.56
2023-05-02T07:23:28.318Z,101352.84
2023-05-02T07:25:54.803Z,101354.47
2023-05-02T07:28:21.162Z,101350.00
2023-05-02T07:30:47.540Z,101365.00
2023-05-02T07:33:14.676Z,101366.41
2023-05-02T07:35:41.053Z,101359.44
2023-05-02T07:38:07.391Z,101371.44
2023-05-02T07:40:33.773Z,101365.78
2023-05-02T07:43:03.071Z,101360.03
2023-05-02T07:45:29.500Z,101375.84
2023-05-02T07:47:55.993Z,101376.88
2023-05-02T07:50:22.591Z,101381.16
2023-05-02T07:52:48.961Z,101378.16
2023-05-02T07:55:15.457Z,101375.19
2023-05-02T07:57:42.281Z,101388.84
2023-05-02T08:00:10.118Z,101388.72
2023-05-02T08:02:39.591Z,101385.22
2023-05-02T08:05:06.424Z,101395.25
2023-05-02T08:07:33.578Z,101387.25
2023-05-02T08:10:00.169Z,101407.53
2023-05-02T08:12:26.676Z,101400.25
2023-05-02T08:14:53.064Z,101398.03
2023-05-02T08:17:19.423Z,101402.28
2023-05-02T08:19:45.773Z,101411.59
2023-05-02T08:22:12.126Z,101417.97
2023-05-02T08:24:38.681Z,101415.94
2023-05-02T08:27:05.025Z,101416.78
2023-05-02T08:29:31.575Z,101422.34
2023-05-02T08:31:57.965Z,101421.09
2023-05-02T08:34:24.344Z,101423.06
2023-05-02T08:36:50.828Z,101424.84
2023-05-02T08:39:17.768Z,101414.91
2023-05-02T08:41:44.864Z,101428.53
2023-05-02T08:44:11.464Z,101441.97
2023-05-02T08:46:37.910Z,101434.88
2023-05-02T08:49:04.339Z,101442.84
2023-05-02T08:51:32.723Z,101446.34
2023-05-02T08:53:59.224Z,101449.00
2023-05-02T08:56:26.243Z,101458.84
2023-05-02T08:58:52.601Z,101465.44
2023-05-02T09:01:19.688Z,101466.69
2023-05-02T09:03:46.467Z,101469.06
2023-05-02T09:06:22.202Z,101471.09
2023-05-02T09:08:49.415Z,101475.03
2023-05-02T09:11:16.493Z,101481.72
2023-05-02T09:13:43.742Z,101484.13
2023-05-02T09:16:10.907Z,101495.16
2023-05-02T09:18:43.953Z,101492.38
2023-05-02T09:21:12.341Z,101496.75
2023-05-02T09:23:41.816Z,101506.13
2023-05-02T09:26:21.301Z,101512.97
2023-05-02T09:28:48.394Z,101517.63
2023-05-02T09:31:18.742Z,101520.63
2023-05-02T09:33:49.433Z,101523.59
2023-05-02T09:36:16.287Z,101529.47
2023-05-02T09:38:42.990Z,101525.13
2023-05-02T09:41:09.522Z,101529.72
2023-05-02T09:43:35.885Z,101523.94
2023-05-02T09:46:06.104Z,101529.72
2023-05-02T09:48:33.007Z,101524.16
2023-05-02T09:50:59.414Z,101537.28
2023-05-02T09:53:26.269Z,101531.72
2023-05-02T09:56:02.516Z,101557.78
2023-05-02T09:58:30.782Z,101556.28
2023-05-02T10:00:57.393Z,101555.53
2023-05-02T10:03:24.477Z,101571.84
2023-05-02T10:05:50.960Z,101570.91
2023-05-02T10:08:18.415Z,101577.25
2023-05-02T10:10:50.195Z,101583.88
2023-05-02T10:13:17.175Z,101588.06
2023-05-02T10:15:43.897Z,101596.69
2023-05-02T10:18:17.771Z,101605.25
2023-05-02T10:20:52.955Z,101611.75
2023-05-02T10:23:19.333Z,101622.16
2023-05-02T10:25:45.719Z,101612.00
2023-05-02T10:28:12.109Z,101617.66
2023-05-02T10:30:39.083Z,101632.06
2023-05-02T10:33:05.461Z,101625.97
2023-05-02T10:35:31.806Z,101630.44
2023-05-02T10:37:59.269Z,101630.69
2023-05-02T10:40:26.231Z,101638.16
2023-05-02T10:42:52.990Z,101638.16
2023-05-02T10:45:32.174Z,101649.81
2023-05-02T10:48:13.866Z,101656.88
2023-05-02T10:50:43.814Z,101661.88
2023-05-02T10:53:26.203Z,101665.31
2023-05-02T10:56:11.450Z,101661.56
2023-05-02T10:58:37.853Z,101663.06
2023-05-02T11:01:23.201Z,101663.28
2023-05-02T11:04:01.568Z,101677.06
2023-05-02T11:06:28.412Z,101664.84
2023-05-02T11:09:15.323Z,101678.34
2023-05-02T11:11:42.334Z,101679.72
2023-05-02T11:14:09.094Z,101679.84
2023-05-02T11:17:04.584Z,101684.94
2023-05-02T11:19:54.057Z,101684.19
2023-05-02T11:22:28.042Z,101680.47
2023-05-02T11:24:54.460Z,101689.97
2023-05-02T11:27:30.028Z,101688.59
2023-05-02T11:29:59.234Z,101687.94
2023-05-02T11:32:27.274Z,101692.50
2023-05-02T11:34:55.571Z,101690.78
2023-05-02T11:37:22.199Z,101694.31
2023-05-02T11:39:48.738Z,101689.84
2023-05-02T11:42:30.360Z,101704.34
2023-05-02T11:45:00.136Z,101703.38
2023-05-02T11:47:27.504Z,101700.41
2023-05-02T11:49:56.889Z,101702.06
2023-05-02T11:52:23.352Z,101713.34
2023-05-02T11:54:53.614Z,101716.84
2023-05-02T11:57:19.946Z,101714.28
2023-05-02T11:59:49.098Z,101705.66
2023-05-02T12:02:15.534Z,101720.06
2023-05-02T12:04:42.277Z,101726.88
2023-05-02T12:07:10.203Z,101725.25
2023-05-02T12:09:51.229Z,101720.53
2023-05-02T12:12:21.253Z,101724.69
2023-05-02T12:14:47.600Z,101728.41
2023-05-02T12:17:13.946Z,101744.44
2023-05-02T12:19:40.290Z,101739.75
2023-05-02T12:22:07.815Z,101740.19
2023-05-02T12:24:35.938Z,101742.84
2023-05-02T12:27:14.464Z,101750.88
2023-05-02T12:29:44.078Z,101754.16
2023-05-02T12:32:11.021Z,101756.84
2023-05-02T12:34:37.543Z,101755.34
2023-05-02T12:37:04.012Z,101751.72
2023-05-02T12:39:36.690Z,101753.56
2023-05-02T12:42:12.445Z,101751.41
2023-05-02T12:44:39.400Z,101755.81
2023-05-02T12:47:05.827Z,101756.13
2023-05-02T12:49:32.262Z,101745.66
2023-05-02T12:51:59.176Z,101747.47
2023-05-02T12:54:26.641Z,101755.91
2023-05-02T12:56:53.005Z,101753.88
2023-05-02T12:59:28.646Z,101760.28
2023-05-02T13:01:55.036Z,101759.78
2023-05-02T13:04:21.550Z,101772.91
2023-05-02T13:06:48.088Z,101771.63
2023-05-02T13:09:14.450Z,101768.72
2023-05-02T13:11:40.849Z,101779.00
2023-05-02T13:14:07.219Z,101773.09
2023-05-02T13:16:34.630Z,101777.81
2023-05-02T13:19:01.136Z,101781.03
2023-05-02T13:21:27.486Z,101788.19
2023-05-02T13:23:55.333Z,101793.63
2023-05-02T13:26:21.685Z,101790.44
2023-05-02T13:28:48.284Z,101796.97
2023-05-02T13:31:14.665Z,101796.09
2023-05-02T13:33:41.158Z,101794.69
2023-05-02T13:36:07.537Z,101802.94
2023-05-02T13:38:34.773Z,101800.19
2023-05-02T13:41:01.129Z,101801.03
2023-05-02T13:43:27.596Z,101809.78
2023-05-02T13:45:53.950Z,101811.50
2023-05-02T13:48:20.613Z,101818.75
2023-05-02T13:50:47.181Z,101814.50
2023-05-02T13:53:13.567Z,101802.41
2023-05-02T13:55:39.922Z,101811.16
2023-05-02T13:58:06.644Z,101807.44
2023-05-02T14:00:33.035Z,101825.72
2023-05-02T14:02:59.434Z,101820.69
2023-05-02T14:05:25.995Z,101809.91
2023-05-02T14:07:52.344Z,101830.41
2023-05-02T14:10:18.702Z,101834.25
2023-05-02T14:12:45.078Z,101828.47
2023-05-02T14:15:13.038Z,101838.84
2023-05-02T14:17:39.586Z,101847.22
2023-05-02T14:20:06.272Z,101842.63
2023-05-02T14:22:32.737Z,101848.47
2023-05-02T14:24:59.104Z,101852.88
2023-05-02T14:27:25.896Z,101854.25
2023-05-02T14:29:52.329Z,101863.00
2023-05-02T14:32:18.790Z,101855.97
2023-05-02T14:34:45.304Z,101861.88
2023-05-02T14:37:11.756Z,101864.75
2023-05-02T14:39:39.120Z,101861.94
2023-05-02T14:42:06.104Z,101866.47
2023-05-02T14:44:32.513Z,101874.16
2023-05-02T14:46:58.963Z,101876.59
2023-05-02T14:49:25.592Z,101872.88
2023-05-02T14:51:52.421Z,101872.56
2023-05-02T14:54:20.297Z,101872.56
2023-05-02T14:56:47.356Z,101870.94
2023-05-02T14:59:14.027Z,101870.94
2023-05-02T15:01:40.672Z,101874.44
2023-05-02T15:04:08.431Z,101870.28
2023-05-02T15:06:36.231Z,101870.91
2023-05-02T15:09:03.375Z,101876.91
2023-05-02T15:11:29.919Z,101880.53
2023-05-02T15:13:58.452Z,101888.69
2023-05-02T15:16:27.271Z,101877.44
2023-05-02T15:18:54.293Z,101880.22
2023-05-02T15:21:20.815Z,101873.19
2023-05-02T15:23:47.569Z,101871.50
2023-05-02T15:26:14.113Z,101879.72
2023-05-02T15:28:40.983Z,101879.50
2023-05-02T15:31:07.463Z,101892.44
2023-05-02T15:33:33.932Z,101876.50
2023-05-02T15:36:00.717Z,101879.38
2023-05-02T15:38:27.590Z,101874.25
2023-05-02T15:40:57.075Z,101882.69
2023-05-02T15:43:23.629Z,101876.19
2023-05-02T15:45:50.503Z,101878.41
2023-05-02T15:48:16.914Z,101883.41
2023-05-02T15:50:43.303Z,101885.50
2023-05-02T15:53:10.261Z,101885.72
2023-05-02T15:55:36.678Z,101890.72
2023-05-02T15:58:03.031Z,101894.84
2023-05-02T16:00:29.530Z,101892.72
2023-05-02T16:02:55.943Z,101889.53
2023-05-02T16:05:22.388Z,101891.22
2023-05-02T16:07:48.795Z,101892.72
2023-05-02T16:10:15.139Z,101896.47
2023-05-02T16:12:41.516Z,101897.00
2023-05-02T16:15:08.361Z,101896.69
2023-05-02T16:17:34.792Z,101897.22
2023-05-02T16:20:01.574Z,101892.28
2023-05-02T16:22:28.756Z,101896.97
2023-05-02T16:24:55.195Z,101907.78
2023-05-02T16:27:21.590Z,101896.13
2023-05-02T16:29:48.518Z,101905.53
2023-05-02T16:32:14.866Z,101897.84
2023-05-02T16:34:41.232Z,101898.09
2023-05-02T16:37:07.583Z,101897.22
2023-05-02T16:39:34.027Z,101898.09
2023-05-02T16:42:00.375Z,101902.22
2023-05-02T16:44:26.749Z,101902.34
2023-05-02T16:46:53.169Z,101903.72
2023-05-02T16:49:19.528Z,101909.03
2023-05-02T16:51:48.860Z,101906.03
2023-05-02T16:54:15.309Z,101904.00
2023-05-02T16:56:42.933Z,101904.53
2023-05-02T16:59:09.378Z,101904.13
2023-05-02T17:01:35.900Z,101907.78
2023-05-02T17:04:02.286Z,101901.78
2023-05-02T17:06:28.668Z,101900.25
2023-05-02T17:08:55.073Z,101910.81
2023-05-02T17:11:21.834Z,101912.31
2023-05-02T17:13:49.724Z,101909.66
2023-05-02T17:16:17.973Z,101907.47
2023-05-02T17:18:44.368Z,101912.50
2023-05-02T17:21:10.876Z,101908.22
2023-05-02T17:23:37.433Z,101913.09
2023-05-02T17:26:05.479Z,101925.19
2023-05-02T17:28:31.838Z,101910.00
2023-05-02T17:30:59.281Z,101923.34
2023-05-02T17:33:27.387Z,101921.16
2023-05-02T17:35:54.163Z,101915.81
2023-05-02T17:38:20.667Z,101926.63
2023-05-02T17:40:47.039Z,101931.88
2023-05-02T17:43:13.396Z,101932.13
2023-05-02T17:45:41.443Z,101935.00
2023-05-02T17:48:07.872Z,101937.06
2023-05-02T17:50:38.226Z,101944.47
2023-05-02T17:53:07.264Z,101945.22
2023-05-02T17:55:36.958Z,101937.28
2023-05-02T17:58:03.431Z,101939.50
2023-05-02T18:00:32.726Z,101945.59
2023-05-02T18:02:59.250Z,101942.41
2023-05-02T18:05:26.758Z,101948.59
2023-05-02T18:07:53.305Z,101951.16
2023-05-02T18:10:19.641Z,101961.19
2023-05-02T18:12:46.465Z,101947.19
2023-05-02T18:15:12.824Z,101952.75
2023-05-02T18:17:39.263Z,101958.41
2023-05-02T18:20:07.063Z,101963.72
2023-05-02T18:22:33.677Z,101965.00
2023-05-02T18:25:00.170Z,101967.75
2023-05-02T18:27:26.835Z,101961.47
2023-05-02T18:29:54.401Z,101963.94
2023-05-02T18:32:21.563Z,101969.47
2023-05-02T18:34:48.366Z,101973.28
2023-05-02T18:37:14.737Z,101970.19
2023-05-02T18:39:41.089Z,101973.06
2023-05-02T18:42:08.295Z,101975.81
2023-05-02T18:44:34.713Z,101976.56
2023-05-02T18:47:01.070Z,101976.31
2023-05-02T18:49:27.442Z,101979.94
2023-05-02T18:51:54.310Z,101976.09
2023-05-02T18:54:22.258Z,101979.72
2023-05-02T18:56:49.211Z,101991.16
2023-05-02T18:59:15.604Z,101990.91
2023-05-02T19:01:42.019Z,101992.38
2023-05-02T19:04:08.380Z,101997.28
2023-05-02T19:06:34.823Z,102000.91
2023-05-02T19:09:01.743Z,102010.84
2023-05-02T19:11:28.109Z,102012.31
2023-05-02T19:13:56.705Z,102008.19
2023-05-02T19:16:25.858Z,102015.88
2023-05-02T19:18:54.638Z,102026.88
2023-05-02T19:21:21.523Z,102032.19
2023-05-02T19:23:48.486Z,102032.25
2023-05-02T19:26:15.387Z,102027.41
2023-05-02T19:28:41.753Z,102030.78
2023-05-02T19:31:10.482Z,102036.06
2023-05-02T19:33:37.849Z,102042.16
2023-05-02T19:36:06.547Z,102044.31
2023-05-02T19:38:33.408Z,102039.16
2023-05-02T19:40:59.986Z,102047.81
2023-05-02T19:43:27.525Z,102052.59
2023-05-02T19:45:53.941Z,102057.84
2023-05-02T19:48:22.405Z,102069.50
2023-05-02T19:50:49.351Z,102057.84
2023-05-02T19:53:15.786Z,102060.59
2023-05-02T19:55:42.166Z,102064.63
2023-05-02T19:58:08.559Z,102066.97
2023-05-02T20:00:34.942Z,102070.59
2023-05-02T20:03:01.489Z,102074.13
2023-05-02T20:05:27.889Z,102077.25
2023-05-02T20:07:54.268Z,102071.13
2023-05-02T20:10:20.792Z,102082.88
2023-05-02T20:12:47.175Z,102079.66
2023-05-02T20:15:13.932Z,102081.38
2023-05-02T20:17:40.346Z,102079.75
2023-05-02T20:20:08.262Z,102076.88
2023-05-02T20:22:34.804Z,102086.78
2023-05-02T20:25:01.214Z,102092.53
2023-05-02T20:27:27.589Z,102085.25
2023-05-02T20:29:53.939Z,102089.66
2023-05-02T20:32:20.486Z,102091.16
2023-05-02T20:34:47.283Z,102095.41
2023-05-02T20:37:13.695Z,102095.41
2023-05-02T20:39:40.080Z,102096.16
2023-05-02T20:42:06.510Z,102098.31
2023-05-02T20:44:36.493Z,102100.41
2023-05-02T20:47:03.642Z,102105.44
2023-05-02T20:49:32.957Z,102114.69
2023-05-02T20:52:03.417Z,102121.22
2023-05-02T20:54:29.851Z,102111.06
2023-05-02T20:56:56.236Z,102113.94
2023-05-02T20:59:22.623Z,102113.19
2023-05-02T21:01:49.047Z,102114.59
2023-05-02T21:04:15.523Z,102109.44
2023-05-02T21:06:41.955Z,102126.72
2023-05-02T21:09:09.493Z,102121.22
2023-05-02T21:11:35.917Z,102130.47
2023-05-02T21:14:02.323Z,102126.72
2023-05-02T21:16:28.761Z,102127.34
2023-05-02T21:18:55.342Z,102133.22
2023-05-02T21:21:22.375Z,102129.59
2023-05-02T21:23:48.773Z,102135.75
2023-05-02T21:26:15.129Z,102144.00
2023-05-02T21:28:41.471Z,102145.28
2023-05-02T21:31:07.988Z,102145.28
2023-05-02T21:33:34.435Z,102142.38
2023-05-02T21:36:01.410Z,102140.13
2023-05-02T21:38:27.864Z,102149.50
2023-05-02T21:40:54.246Z,102144.38
2023-05-02T21:43:20.794Z,102141.38
2023-05-02T21:45:47.493Z,102143.47
2023-05-02T21:48:13.970Z,102142.00
2023-05-02T21:50:40.870Z,102140.47
2023-05-02T21:53:07.215Z,102140.47
2023-05-02T21:55:33.567Z,102147.63
2023-05-02T21:57:59.922Z,102144.00
2023-05-02T22:00:26.351Z,102138.97
2023-05-02T22:02:52.885Z,102141.72
2023-05-02T22:05:19.374Z,102144.47
2023-05-02T22:07:47.741Z,102146.00
2023-05-02T22:10:14.728Z,102144.47
2023-05-02T22:12:41.229Z,102150.25
2023-05-02T22:15:08.123Z,102149.50
2023-05-02T22:17:34.493Z,102152.97
2023-05-02T22:20:02.654Z,102156.63
2023-05-02T22:22:29.316Z,102157.53
2023-05-02T22:24:56.587Z,102171.78
2023-05-02T22:27:22.949Z,102165.91
2023-05-02T22:29:49.283Z,102164.50
2023-05-02T22:32:15.845Z,102166.50
2023-05-02T22:34:42.415Z,102174.53
2023-05-02T22:37:08.759Z,102168.50
2023-05-02T22:39:35.119Z,102169.38
2023-05-02T22:42:01.576Z,102172.91
2023-05-02T22:44:27.943Z,102168.50
2023-05-02T22:46:54.852Z,102185.78
2023-05-02T22:49:21.230Z,102177.00
2023-05-02T22:51:48.068Z,102178.53
2023-05-02T22:54:15.151Z,102179.75
2023-05-02T22:56:41.529Z,102184.78
2023-05-02T22:59:07.880Z,102184.78
2023-05-02T23:01:34.502Z,102188.41
2023-05-02T23:04:01.164Z,102195.53
2023-05-02T23:06:31.435Z,102191.13
2023-05-02T23:08:57.809Z,102189.66
2023-05-02T23:11:24.194Z,102199.66
2023-05-02T23:13:50.541Z,102196.16
2023-05-02T23:16:17.004Z,102196.75
2023-05-02T23:18:43.352Z,102196.03
2023-05-02T23:21:15.954Z,102204.66
2023-05-02T23:23:42.290Z,102201.03
2023-05-02T23:26:09.338Z,102200.28
2023-05-02T23:28:35.710Z,102199.53
2023-05-02T23:31:02.752Z,102196.66
2023-05-02T23:33:29.695Z,102195.88
2023-05-02T23:35:56.222Z,102203.78
2023-05-02T23:38:22.549Z,102199.41
2023-05-02T23:40:48.912Z,102202.28
2023-05-02T23:43:15.232Z,102201.50
2023-05-02T23:45:41.602Z,102199.25
2023-05-02T23:48:07.996Z,102200.75
2023-05-02T23:50:34.401Z,102200.00
2023-05-02T23:53:01.201Z,102202.16
2023-05-02T23:55:27.613Z,102205.03
2023-05-02T23:57:53.975Z,102200.63
